sensor_id;sensor_type;location;lat;lon;timestamp;P1;durP1;ratioP1;P2;durP2;ratioP2
10617;SDS011;5356;43.526;26.534;2022-10-16T00:01:09;7.57;;;5.30;;
10617;SDS011;5356;43.526;26.534;2022-10-16T00:03:39;9.82;;;4.95;;
10617;SDS011;5356;43.526;26.534;2022-10-16T00:06:06;8.15;;;5.03;;
10617;SDS011;5356;43.526;26.534;2022-10-16T00:08:32;9.68;;;4.53;;
10617;SDS011;5356;43.526;26.534;2022-10-16T00:11:05;6.53;;;4.93;;
10617;SDS011;5356;43.526;26.534;2022-10-16T00:13:33;8.30;;;4.38;;
10617;SDS011;5356;43.526;26.534;2022-10-16T00:16:00;8.55;;;4.90;;
10617;SDS011;5356;43.526;26.534;2022-10-16T00:18:27;7.57;;;5.07;;
10617;SDS011;5356;43.526;26.534;2022-10-16T00:20:53;9.65;;;4.80;;
10617;SDS011;5356;43.526;26.534;2022-10-16T00:23:19;8.23;;;5.13;;
10617;SDS011;5356;43.526;26.534;2022-10-16T00:25:45;7.13;;;4.50;;
10617;SDS011;5356;43.526;26.534;2022-10-16T00:28:20;6.95;;;4.25;;
10617;SDS011;5356;43.526;26.534;2022-10-16T00:30:45;6.22;;;4.40;;
10617;SDS011;5356;43.526;26.534;2022-10-16T00:33:11;8.40;;;4.53;;
10617;SDS011;5356;43.526;26.534;2022-10-16T00:35:36;10.18;;;4.65;;
10617;SDS011;5356;43.526;26.534;2022-10-16T00:38:02;5.65;;;4.28;;
10617;SDS011;5356;43.526;26.534;2022-10-16T00:40:27;7.70;;;4.55;;
10617;SDS011;5356;43.526;26.534;2022-10-16T00:42:53;6.72;;;4.57;;
10617;SDS011;5356;43.526;26.534;2022-10-16T00:45:18;8.75;;;4.80;;
10617;SDS011;5356;43.526;26.534;2022-10-16T00:47:44;8.40;;;5.22;;
10617;SDS011;5356;43.526;26.534;2022-10-16T00:50:24;9.40;;;5.50;;
10617;SDS011;5356;43.526;26.534;2022-10-16T00:52:53;10.27;;;5.60;;
10617;SDS011;5356;43.526;26.534;2022-10-16T00:55:20;8.52;;;4.72;;
10617;SDS011;5356;43.526;26.534;2022-10-16T00:57:46;9.57;;;5.80;;
10617;SDS011;5356;43.526;26.534;2022-10-16T01:00:14;8.25;;;5.85;;
10617;SDS011;5356;43.526;26.534;2022-10-16T01:02:42;8.85;;;4.80;;
10617;SDS011;5356;43.526;26.534;2022-10-16T01:05:08;6.82;;;5.18;;
10617;SDS011;5356;43.526;26.534;2022-10-16T01:25:52;11.35;;;5.47;;
10617;SDS011;5356;43.526;26.534;2022-10-16T01:28:32;7.10;;;5.10;;
10617;SDS011;5356;43.526;26.534;2022-10-16T01:31:04;8.20;;;5.07;;
10617;SDS011;5356;43.526;26.534;2022-10-16T01:33:34;7.90;;;5.05;;
10617;SDS011;5356;43.526;26.534;2022-10-16T01:36:12;8.45;;;5.05;;
10617;SDS011;5356;43.526;26.534;2022-10-16T01:38:40;8.18;;;4.50;;
10617;SDS011;5356;43.526;26.534;2022-10-16T01:41:11;9.80;;;4.75;;
10617;SDS011;5356;43.526;26.534;2022-10-16T01:43:53;8.85;;;5.35;;
10617;SDS011;5356;43.526;26.534;2022-10-16T01:46:43;7.47;;;5.13;;
10617;SDS011;5356;43.526;26.534;2022-10-16T01:49:12;11.43;;;6.15;;
10617;SDS011;5356;43.526;26.534;2022-10-16T01:51:38;9.38;;;5.05;;
10617;SDS011;5356;43.526;26.534;2022-10-16T01:54:04;7.72;;;4.97;;
10617;SDS011;5356;43.526;26.534;2022-10-16T01:56:33;9.18;;;5.40;;
10617;SDS011;5356;43.526;26.534;2022-10-16T01:59:06;9.85;;;4.97;;
10617;SDS011;5356;43.526;26.534;2022-10-16T02:01:36;7.05;;;4.57;;
10617;SDS011;5356;43.526;26.534;2022-10-16T02:04:39;8.38;;;5.18;;
10617;SDS011;5356;43.526;26.534;2022-10-16T02:06:59;8.38;;;5.25;;
10617;SDS011;5356;43.526;26.534;2022-10-16T02:09:25;8.05;;;5.32;;
10617;SDS011;5356;43.526;26.534;2022-10-16T02:11:52;7.75;;;5.55;;
10617;SDS011;5356;43.526;26.534;2022-10-16T02:14:20;13.50;;;8.82;;
10617;SDS011;5356;43.526;26.534;2022-10-16T02:16:49;11.13;;;6.45;;
10617;SDS011;5356;43.526;26.534;2022-10-16T02:19:15;10.75;;;6.80;;
10617;SDS011;5356;43.526;26.534;2022-10-16T02:24:23;9.00;;;5.82;;
10617;SDS011;5356;43.526;26.534;2022-10-16T02:27:06;11.68;;;6.97;;
10617;SDS011;5356;43.526;26.534;2022-10-16T02:29:38;16.77;;;7.03;;
10617;SDS011;5356;43.526;26.534;2022-10-16T02:32:09;13.10;;;6.75;;
10617;SDS011;5356;43.526;26.534;2022-10-16T02:34:37;7.65;;;6.07;;
10617;SDS011;5356;43.526;26.534;2022-10-16T02:37:05;11.00;;;6.90;;
10617;SDS011;5356;43.526;26.534;2022-10-16T02:39:32;12.73;;;7.15;;
10617;SDS011;5356;43.526;26.534;2022-10-16T02:41:58;11.73;;;6.53;;
10617;SDS011;5356;43.526;26.534;2022-10-16T02:44:24;9.77;;;6.35;;
10617;SDS011;5356;43.526;26.534;2022-10-16T02:46:49;12.50;;;7.57;;
10617;SDS011;5356;43.526;26.534;2022-10-16T02:49:15;14.27;;;7.65;;
10617;SDS011;5356;43.526;26.534;2022-10-16T02:51:40;16.30;;;7.07;;
10617;SDS011;5356;43.526;26.534;2022-10-16T02:54:05;17.60;;;7.88;;
10617;SDS011;5356;43.526;26.534;2022-10-16T02:56:31;11.45;;;6.95;;
10617;SDS011;5356;43.526;26.534;2022-10-16T02:58:56;10.93;;;7.28;;
10617;SDS011;5356;43.526;26.534;2022-10-16T03:01:22;13.02;;;6.68;;
10617;SDS011;5356;43.526;26.534;2022-10-16T03:03:48;13.18;;;7.70;;
10617;SDS011;5356;43.526;26.534;2022-10-16T03:06:14;10.45;;;6.03;;
10617;SDS011;5356;43.526;26.534;2022-10-16T03:08:39;14.77;;;6.95;;
10617;SDS011;5356;43.526;26.534;2022-10-16T03:11:05;11.05;;;6.72;;
10617;SDS011;5356;43.526;26.534;2022-10-16T03:13:30;12.45;;;7.28;;
10617;SDS011;5356;43.526;26.534;2022-10-16T03:15:56;15.00;;;7.85;;
10617;SDS011;5356;43.526;26.534;2022-10-16T03:18:22;14.10;;;7.60;;
10617;SDS011;5356;43.526;26.534;2022-10-16T03:20:47;14.98;;;7.43;;
10617;SDS011;5356;43.526;26.534;2022-10-16T03:23:12;8.90;;;6.28;;
10617;SDS011;5356;43.526;26.534;2022-10-16T03:25:38;9.57;;;6.95;;
10617;SDS011;5356;43.526;26.534;2022-10-16T03:28:04;13.65;;;7.40;;
10617;SDS011;5356;43.526;26.534;2022-10-16T03:30:29;10.32;;;6.53;;
10617;SDS011;5356;43.526;26.534;2022-10-16T03:32:55;13.00;;;5.90;;
10617;SDS011;5356;43.526;26.534;2022-10-16T03:35:21;10.07;;;5.70;;
10617;SDS011;5356;43.526;26.534;2022-10-16T03:37:47;14.68;;;6.30;;
10617;SDS011;5356;43.526;26.534;2022-10-16T03:40:13;10.55;;;6.65;;
10617;SDS011;5356;43.526;26.534;2022-10-16T03:42:39;10.65;;;6.68;;
10617;SDS011;5356;43.526;26.534;2022-10-16T03:45:04;12.05;;;7.18;;
10617;SDS011;5356;43.526;26.534;2022-10-16T03:47:30;10.85;;;6.68;;
10617;SDS011;5356;43.526;26.534;2022-10-16T03:49:58;11.18;;;7.05;;
10617;SDS011;5356;43.526;26.534;2022-10-16T03:52:24;11.55;;;6.72;;
10617;SDS011;5356;43.526;26.534;2022-10-16T03:54:50;13.02;;;7.03;;
10617;SDS011;5356;43.526;26.534;2022-10-16T03:57:15;11.68;;;6.35;;
10617;SDS011;5356;43.526;26.534;2022-10-16T03:59:40;11.15;;;6.60;;
10617;SDS011;5356;43.526;26.534;2022-10-16T04:02:06;11.95;;;6.22;;
10617;SDS011;5356;43.526;26.534;2022-10-16T04:04:31;12.98;;;6.13;;
10617;SDS011;5356;43.526;26.534;2022-10-16T04:06:57;12.05;;;6.95;;
10617;SDS011;5356;43.526;26.534;2022-10-16T04:09:22;15.25;;;7.18;;
10617;SDS011;5356;43.526;26.534;2022-10-16T04:11:48;14.70;;;7.38;;
10617;SDS011;5356;43.526;26.534;2022-10-16T04:14:13;15.90;;;7.50;;
10617;SDS011;5356;43.526;26.534;2022-10-16T04:16:39;14.38;;;7.50;;
10617;SDS011;5356;43.526;26.534;2022-10-16T04:19:04;11.88;;;7.32;;
10617;SDS011;5356;43.526;26.534;2022-10-16T04:21:30;12.52;;;7.70;;
10617;SDS011;5356;43.526;26.534;2022-10-16T04:23:55;11.68;;;7.78;;
10617;SDS011;5356;43.526;26.534;2022-10-16T04:26:21;14.25;;;7.93;;
10617;SDS011;5356;43.526;26.534;2022-10-16T04:28:46;12.32;;;8.52;;
10617;SDS011;5356;43.526;26.534;2022-10-16T04:31:11;14.15;;;8.68;;
10617;SDS011;5356;43.526;26.534;2022-10-16T04:33:37;16.38;;;9.02;;
10617;SDS011;5356;43.526;26.534;2022-10-16T04:36:03;18.02;;;8.45;;
10617;SDS011;5356;43.526;26.534;2022-10-16T04:38:29;19.52;;;10.70;;
10617;SDS011;5356;43.526;26.534;2022-10-16T04:40:55;29.35;;;15.50;;
10617;SDS011;5356;43.526;26.534;2022-10-16T04:43:20;23.15;;;14.65;;
10617;SDS011;5356;43.526;26.534;2022-10-16T04:45:46;17.17;;;11.05;;
10617;SDS011;5356;43.526;26.534;2022-10-16T04:48:12;17.70;;;8.77;;
10617;SDS011;5356;43.526;26.534;2022-10-16T04:50:37;17.63;;;8.07;;
10617;SDS011;5356;43.526;26.534;2022-10-16T04:53:03;12.88;;;6.90;;
10617;SDS011;5356;43.526;26.534;2022-10-16T04:55:28;10.82;;;7.30;;
10617;SDS011;5356;43.526;26.534;2022-10-16T04:57:54;14.77;;;7.45;;
10617;SDS011;5356;43.526;26.534;2022-10-16T05:00:20;10.63;;;6.63;;
10617;SDS011;5356;43.526;26.534;2022-10-16T05:02:45;15.93;;;7.80;;
10617;SDS011;5356;43.526;26.534;2022-10-16T05:05:11;12.07;;;7.55;;
10617;SDS011;5356;43.526;26.534;2022-10-16T05:07:36;11.57;;;6.63;;
10617;SDS011;5356;43.526;26.534;2022-10-16T05:10:02;13.40;;;8.32;;
10617;SDS011;5356;43.526;26.534;2022-10-16T05:12:28;9.70;;;6.78;;
10617;SDS011;5356;43.526;26.534;2022-10-16T05:14:53;14.95;;;8.13;;
10617;SDS011;5356;43.526;26.534;2022-10-16T05:17:23;13.60;;;7.57;;
10617;SDS011;5356;43.526;26.534;2022-10-16T05:19:51;13.13;;;6.97;;
10617;SDS011;5356;43.526;26.534;2022-10-16T05:22:17;12.13;;;6.43;;
10617;SDS011;5356;43.526;26.534;2022-10-16T05:24:42;11.52;;;6.70;;
10617;SDS011;5356;43.526;26.534;2022-10-16T05:27:08;11.23;;;6.90;;
10617;SDS011;5356;43.526;26.534;2022-10-16T05:29:33;12.65;;;7.35;;
10617;SDS011;5356;43.526;26.534;2022-10-16T05:32:00;14.88;;;8.40;;
10617;SDS011;5356;43.526;26.534;2022-10-16T05:34:25;12.18;;;8.00;;
10617;SDS011;5356;43.526;26.534;2022-10-16T05:36:50;11.32;;;7.43;;
10617;SDS011;5356;43.526;26.534;2022-10-16T05:39:16;10.60;;;7.28;;
10617;SDS011;5356;43.526;26.534;2022-10-16T05:41:42;10.23;;;6.80;;
10617;SDS011;5356;43.526;26.534;2022-10-16T05:44:07;12.00;;;7.57;;
10617;SDS011;5356;43.526;26.534;2022-10-16T05:46:33;11.30;;;6.43;;
10617;SDS011;5356;43.526;26.534;2022-10-16T05:48:59;10.93;;;6.63;;
10617;SDS011;5356;43.526;26.534;2022-10-16T05:51:24;9.07;;;6.45;;
10617;SDS011;5356;43.526;26.534;2022-10-16T05:53:50;8.80;;;6.55;;
10617;SDS011;5356;43.526;26.534;2022-10-16T05:56:15;7.90;;;6.50;;
10617;SDS011;5356;43.526;26.534;2022-10-16T05:58:41;11.40;;;7.10;;
10617;SDS011;5356;43.526;26.534;2022-10-16T06:01:09;9.10;;;6.60;;
10617;SDS011;5356;43.526;26.534;2022-10-16T06:03:36;11.55;;;7.05;;
10617;SDS011;5356;43.526;26.534;2022-10-16T06:06:09;8.55;;;6.40;;
10617;SDS011;5356;43.526;26.534;2022-10-16T06:08:39;9.88;;;7.75;;
10617;SDS011;5356;43.526;26.534;2022-10-16T06:11:06;10.93;;;7.72;;
10617;SDS011;5356;43.526;26.534;2022-10-16T06:13:33;10.43;;;6.80;;
10617;SDS011;5356;43.526;26.534;2022-10-16T06:15:59;11.65;;;7.57;;
10617;SDS011;5356;43.526;26.534;2022-10-16T06:18:26;12.45;;;7.72;;
10617;SDS011;5356;43.526;26.534;2022-10-16T06:20:52;11.65;;;7.43;;
10617;SDS011;5356;43.526;26.534;2022-10-16T06:23:18;15.60;;;8.32;;
10617;SDS011;5356;43.526;26.534;2022-10-16T06:25:44;11.57;;;8.05;;
10617;SDS011;5356;43.526;26.534;2022-10-16T06:28:09;13.02;;;7.97;;
10617;SDS011;5356;43.526;26.534;2022-10-16T06:30:35;13.90;;;8.35;;
10617;SDS011;5356;43.526;26.534;2022-10-16T06:33:00;15.48;;;7.93;;
10617;SDS011;5356;43.526;26.534;2022-10-16T06:35:26;11.50;;;8.30;;
10617;SDS011;5356;43.526;26.534;2022-10-16T06:37:52;14.23;;;8.93;;
10617;SDS011;5356;43.526;26.534;2022-10-16T06:40:18;12.45;;;8.20;;
10617;SDS011;5356;43.526;26.534;2022-10-16T06:42:44;12.15;;;8.10;;
10617;SDS011;5356;43.526;26.534;2022-10-16T06:45:10;10.75;;;8.38;;
10617;SDS011;5356;43.526;26.534;2022-10-16T06:47:35;12.85;;;7.90;;
10617;SDS011;5356;43.526;26.534;2022-10-16T06:50:01;13.02;;;8.98;;
10617;SDS011;5356;43.526;26.534;2022-10-16T06:52:29;14.98;;;9.90;;
10617;SDS011;5356;43.526;26.534;2022-10-16T06:54:54;13.10;;;9.05;;
10617;SDS011;5356;43.526;26.534;2022-10-16T06:57:20;14.52;;;9.65;;
10617;SDS011;5356;43.526;26.534;2022-10-16T06:59:45;13.65;;;8.85;;
10617;SDS011;5356;43.526;26.534;2022-10-16T07:02:11;14.07;;;9.70;;
10617;SDS011;5356;43.526;26.534;2022-10-16T07:04:36;13.05;;;8.10;;
10617;SDS011;5356;43.526;26.534;2022-10-16T07:07:02;15.80;;;9.50;;
10617;SDS011;5356;43.526;26.534;2022-10-16T07:09:27;13.05;;;8.85;;
10617;SDS011;5356;43.526;26.534;2022-10-16T07:11:53;14.93;;;9.25;;
10617;SDS011;5356;43.526;26.534;2022-10-16T07:14:19;17.38;;;9.07;;
10617;SDS011;5356;43.526;26.534;2022-10-16T07:16:46;14.43;;;8.93;;
10617;SDS011;5356;43.526;26.534;2022-10-16T07:19:12;14.13;;;8.77;;
10617;SDS011;5356;43.526;26.534;2022-10-16T07:21:39;9.85;;;8.55;;
10617;SDS011;5356;43.526;26.534;2022-10-16T07:24:06;14.15;;;8.43;;
10617;SDS011;5356;43.526;26.534;2022-10-16T07:26:36;14.43;;;8.35;;
10617;SDS011;5356;43.526;26.534;2022-10-16T07:29:04;12.57;;;8.55;;
10617;SDS011;5356;43.526;26.534;2022-10-16T07:31:37;14.50;;;8.90;;
10617;SDS011;5356;43.526;26.534;2022-10-16T07:34:03;15.63;;;8.68;;
10617;SDS011;5356;43.526;26.534;2022-10-16T07:36:28;12.30;;;8.18;;
10617;SDS011;5356;43.526;26.534;2022-10-16T07:38:54;10.48;;;7.95;;
10617;SDS011;5356;43.526;26.534;2022-10-16T07:41:20;14.93;;;8.55;;
10617;SDS011;5356;43.526;26.534;2022-10-16T07:43:46;12.35;;;8.52;;
10617;SDS011;5356;43.526;26.534;2022-10-16T07:46:12;12.77;;;7.85;;
10617;SDS011;5356;43.526;26.534;2022-10-16T07:48:39;10.45;;;8.32;;
10617;SDS011;5356;43.526;26.534;2022-10-16T07:51:05;10.98;;;8.05;;
10617;SDS011;5356;43.526;26.534;2022-10-16T07:53:31;14.60;;;8.18;;
10617;SDS011;5356;43.526;26.534;2022-10-16T07:56:02;11.10;;;7.00;;
10617;SDS011;5356;43.526;26.534;2022-10-16T07:58:29;10.82;;;7.50;;
10617;SDS011;5356;43.526;26.534;2022-10-16T08:00:56;10.05;;;6.35;;
10617;SDS011;5356;43.526;26.534;2022-10-16T08:03:22;10.70;;;6.80;;
10617;SDS011;5356;43.526;26.534;2022-10-16T08:05:48;7.45;;;5.90;;
10617;SDS011;5356;43.526;26.534;2022-10-16T08:08:14;5.70;;;3.90;;
10617;SDS011;5356;43.526;26.534;2022-10-16T08:10:40;5.80;;;2.90;;
10617;SDS011;5356;43.526;26.534;2022-10-16T08:13:06;7.38;;;3.83;;
10617;SDS011;5356;43.526;26.534;2022-10-16T08:15:31;5.90;;;3.70;;
10617;SDS011;5356;43.526;26.534;2022-10-16T08:17:58;5.10;;;3.40;;
10617;SDS011;5356;43.526;26.534;2022-10-16T08:20:26;2.47;;;2.20;;
10617;SDS011;5356;43.526;26.534;2022-10-16T08:22:52;4.70;;;3.15;;
10617;SDS011;5356;43.526;26.534;2022-10-16T08:25:19;3.25;;;2.75;;
10617;SDS011;5356;43.526;26.534;2022-10-16T08:27:45;4.47;;;2.70;;
10617;SDS011;5356;43.526;26.534;2022-10-16T08:30:11;4.60;;;3.08;;
10617;SDS011;5356;43.526;26.534;2022-10-16T08:32:37;3.53;;;2.55;;
10617;SDS011;5356;43.526;26.534;2022-10-16T08:35:03;5.47;;;2.70;;
10617;SDS011;5356;43.526;26.534;2022-10-16T08:37:32;4.70;;;2.50;;
10617;SDS011;5356;43.526;26.534;2022-10-16T08:39:58;3.20;;;2.55;;
10617;SDS011;5356;43.526;26.534;2022-10-16T08:50:48;5.35;;;2.30;;
10617;SDS011;5356;43.526;26.534;2022-10-16T08:53:18;4.78;;;2.17;;
10617;SDS011;5356;43.526;26.534;2022-10-16T08:55:50;3.95;;;2.08;;
10617;SDS011;5356;43.526;26.534;2022-10-16T08:58:20;6.85;;;2.67;;
10617;SDS011;5356;43.526;26.534;2022-10-16T09:00:52;6.93;;;2.38;;
10617;SDS011;5356;43.526;26.534;2022-10-16T09:13:50;10.93;;;3.05;;
10617;SDS011;5356;43.526;26.534;2022-10-16T09:21:25;3.95;;;2.05;;
10617;SDS011;5356;43.526;26.534;2022-10-16T09:23:56;2.83;;;2.40;;
10617;SDS011;5356;43.526;26.534;2022-10-16T09:26:24;3.53;;;2.47;;
10617;SDS011;5356;43.526;26.534;2022-10-16T09:28:51;4.57;;;2.63;;
10617;SDS011;5356;43.526;26.534;2022-10-16T09:31:19;5.55;;;2.33;;
10617;SDS011;5356;43.526;26.534;2022-10-16T09:33:53;3.15;;;2.55;;
10617;SDS011;5356;43.526;26.534;2022-10-16T09:36:23;4.60;;;2.00;;
10617;SDS011;5356;43.526;26.534;2022-10-16T09:39:00;7.20;;;2.58;;
10617;SDS011;5356;43.526;26.534;2022-10-16T09:41:33;3.25;;;2.33;;
10617;SDS011;5356;43.526;26.534;2022-10-16T09:44:01;6.10;;;2.80;;
10617;SDS011;5356;43.526;26.534;2022-10-16T09:46:32;2.90;;;2.28;;
10617;SDS011;5356;43.526;26.534;2022-10-16T09:49:01;3.88;;;1.95;;
10617;SDS011;5356;43.526;26.534;2022-10-16T09:51:43;5.03;;;2.00;;
10617;SDS011;5356;43.526;26.534;2022-10-16T09:56:34;4.00;;;2.30;;
10617;SDS011;5356;43.526;26.534;2022-10-16T09:59:08;4.60;;;2.40;;
10617;SDS011;5356;43.526;26.534;2022-10-16T10:01:49;4.00;;;2.25;;
10617;SDS011;5356;43.526;26.534;2022-10-16T10:04:20;4.35;;;2.67;;
10617;SDS011;5356;43.526;26.534;2022-10-16T10:06:50;3.30;;;2.17;;
10617;SDS011;5356;43.526;26.534;2022-10-16T10:09:21;2.45;;;2.00;;
10617;SDS011;5356;43.526;26.534;2022-10-16T10:11:55;3.15;;;2.40;;
10617;SDS011;5356;43.526;26.534;2022-10-16T10:14:23;3.22;;;2.25;;
10617;SDS011;5356;43.526;26.534;2022-10-16T10:16:50;5.15;;;2.53;;
10617;SDS011;5356;43.526;26.534;2022-10-16T10:21:43;2.53;;;2.00;;
10617;SDS011;5356;43.526;26.534;2022-10-16T10:24:12;5.57;;;2.97;;
10617;SDS011;5356;43.526;26.534;2022-10-16T10:26:45;6.13;;;3.55;;
10617;SDS011;5356;43.526;26.534;2022-10-16T10:29:22;5.55;;;2.92;;
10617;SDS011;5356;43.526;26.534;2022-10-16T10:43:30;4.90;;;2.33;;
10617;SDS011;5356;43.526;26.534;2022-10-16T10:46:34;4.43;;;2.67;;
10617;SDS011;5356;43.526;26.534;2022-10-16T10:51:58;4.05;;;2.63;;
10617;SDS011;5356;43.526;26.534;2022-10-16T10:54:51;2.97;;;2.03;;
10617;SDS011;5356;43.526;26.534;2022-10-16T10:58:23;3.83;;;2.83;;
10617;SDS011;5356;43.526;26.534;2022-10-16T11:03:35;3.50;;;2.33;;
10617;SDS011;5356;43.526;26.534;2022-10-16T11:11:42;3.72;;;2.33;;
10617;SDS011;5356;43.526;26.534;2022-10-16T11:16:45;5.57;;;2.72;;
10617;SDS011;5356;43.526;26.534;2022-10-16T11:22:13;4.05;;;2.63;;
10617;SDS011;5356;43.526;26.534;2022-10-16T11:27:14;7.72;;;3.60;;
10617;SDS011;5356;43.526;26.534;2022-10-16T11:29:44;3.13;;;2.35;;
10617;SDS011;5356;43.526;26.534;2022-10-16T11:32:36;3.00;;;2.70;;
10617;SDS011;5356;43.526;26.534;2022-10-16T11:35:19;4.25;;;2.42;;
10617;SDS011;5356;43.526;26.534;2022-10-16T11:37:49;3.72;;;2.55;;
10617;SDS011;5356;43.526;26.534;2022-10-16T11:43:14;5.22;;;3.20;;
10617;SDS011;5356;43.526;26.534;2022-10-16T11:46:02;3.53;;;2.53;;
10617;SDS011;5356;43.526;26.534;2022-10-16T11:56:19;5.78;;;2.95;;
10617;SDS011;5356;43.526;26.534;2022-10-16T12:01:19;3.95;;;2.60;;
10617;SDS011;5356;43.526;26.534;2022-10-16T12:04:02;4.65;;;2.70;;
10617;SDS011;5356;43.526;26.534;2022-10-16T12:06:59;3.95;;;2.63;;
10617;SDS011;5356;43.526;26.534;2022-10-16T12:09:31;8.07;;;3.88;;
10617;SDS011;5356;43.526;26.534;2022-10-16T12:11:59;3.33;;;2.45;;
10617;SDS011;5356;43.526;26.534;2022-10-16T12:16:58;4.38;;;2.75;;
10617;SDS011;5356;43.526;26.534;2022-10-16T12:20:00;6.53;;;2.88;;
10617;SDS011;5356;43.526;26.534;2022-10-16T12:25:39;3.60;;;2.42;;
10617;SDS011;5356;43.526;26.534;2022-10-16T12:30:40;3.67;;;2.60;;
10617;SDS011;5356;43.526;26.534;2022-10-16T12:33:16;3.70;;;2.70;;
10617;SDS011;5356;43.526;26.534;2022-10-16T12:35:46;4.10;;;2.70;;
10617;SDS011;5356;43.526;26.534;2022-10-16T12:40:44;5.15;;;2.67;;
10617;SDS011;5356;43.526;26.534;2022-10-16T12:43:58;2.65;;;2.45;;
10617;SDS011;5356;43.526;26.534;2022-10-16T12:48:36;2.60;;;2.40;;
10617;SDS011;5356;43.526;26.534;2022-10-16T12:51:23;3.85;;;2.25;;
10617;SDS011;5356;43.526;26.534;2022-10-16T12:53:59;4.90;;;2.80;;
10617;SDS011;5356;43.526;26.534;2022-10-16T12:59:19;3.67;;;2.50;;
10617;SDS011;5356;43.526;26.534;2022-10-16T13:21:18;5.32;;;2.78;;
10617;SDS011;5356;43.526;26.534;2022-10-16T13:24:09;4.25;;;2.40;;
10617;SDS011;5356;43.526;26.534;2022-10-16T13:26:57;3.03;;;2.13;;
10617;SDS011;5356;43.526;26.534;2022-10-16T13:29:32;3.05;;;2.00;;
10617;SDS011;5356;43.526;26.534;2022-10-16T13:31:59;3.05;;;2.13;;
10617;SDS011;5356;43.526;26.534;2022-10-16T13:34:26;4.43;;;2.00;;
10617;SDS011;5356;43.526;26.534;2022-10-16T13:36:53;4.80;;;2.10;;
10617;SDS011;5356;43.526;26.534;2022-10-16T13:44:42;3.58;;;2.17;;
10617;SDS011;5356;43.526;26.534;2022-10-16T13:47:18;4.63;;;2.05;;
10617;SDS011;5356;43.526;26.534;2022-10-16T13:49:59;3.75;;;2.15;;
10617;SDS011;5356;43.526;26.534;2022-10-16T13:52:25;2.75;;;1.90;;
10617;SDS011;5356;43.526;26.534;2022-10-16T13:54:50;4.57;;;2.28;;
10617;SDS011;5356;43.526;26.534;2022-10-16T13:57:16;2.58;;;1.55;;
10617;SDS011;5356;43.526;26.534;2022-10-16T13:59:43;2.83;;;2.08;;
10617;SDS011;5356;43.526;26.534;2022-10-16T14:02:14;4.68;;;1.98;;
10617;SDS011;5356;43.526;26.534;2022-10-16T14:04:50;3.95;;;2.00;;
10617;SDS011;5356;43.526;26.534;2022-10-16T14:07:33;4.53;;;2.83;;
10617;SDS011;5356;43.526;26.534;2022-10-16T14:10:04;2.38;;;1.92;;
10617;SDS011;5356;43.526;26.534;2022-10-16T14:12:32;5.25;;;3.05;;
10617;SDS011;5356;43.526;26.534;2022-10-16T14:14:59;2.63;;;2.20;;
10617;SDS011;5356;43.526;26.534;2022-10-16T14:17:26;2.70;;;2.00;;
10617;SDS011;5356;43.526;26.534;2022-10-16T14:19:58;3.60;;;2.50;;
10617;SDS011;5356;43.526;26.534;2022-10-16T14:23:00;3.95;;;2.78;;
10617;SDS011;5356;43.526;26.534;2022-10-16T14:25:26;4.07;;;2.03;;
10617;SDS011;5356;43.526;26.534;2022-10-16T14:28:02;4.15;;;2.22;;
10617;SDS011;5356;43.526;26.534;2022-10-16T14:30:54;5.55;;;2.15;;
10617;SDS011;5356;43.526;26.534;2022-10-16T14:35:56;4.40;;;2.30;;
10617;SDS011;5356;43.526;26.534;2022-10-16T14:38:34;5.85;;;2.67;;
10617;SDS011;5356;43.526;26.534;2022-10-16T14:41:03;4.05;;;3.28;;
10617;SDS011;5356;43.526;26.534;2022-10-16T14:43:34;3.97;;;3.03;;
10617;SDS011;5356;43.526;26.534;2022-10-16T14:46:06;4.88;;;2.58;;
10617;SDS011;5356;43.526;26.534;2022-10-16T14:48:45;3.00;;;2.15;;
10617;SDS011;5356;43.526;26.534;2022-10-16T14:51:14;3.00;;;2.20;;
10617;SDS011;5356;43.526;26.534;2022-10-16T14:53:40;6.10;;;2.83;;
10617;SDS011;5356;43.526;26.534;2022-10-16T14:56:07;4.65;;;2.60;;
10617;SDS011;5356;43.526;26.534;2022-10-16T14:58:34;5.82;;;2.50;;
10617;SDS011;5356;43.526;26.534;2022-10-16T15:01:00;6.85;;;2.92;;
10617;SDS011;5356;43.526;26.534;2022-10-16T15:03:25;4.05;;;2.05;;
10617;SDS011;5356;43.526;26.534;2022-10-16T15:05:51;5.50;;;2.85;;
10617;SDS011;5356;43.526;26.534;2022-10-16T15:08:17;9.45;;;3.60;;
10617;SDS011;5356;43.526;26.534;2022-10-16T15:10:42;3.70;;;2.45;;
10617;SDS011;5356;43.526;26.534;2022-10-16T15:13:11;5.95;;;3.05;;
10617;SDS011;5356;43.526;26.534;2022-10-16T15:15:40;5.53;;;3.33;;
10617;SDS011;5356;43.526;26.534;2022-10-16T15:18:08;7.47;;;3.60;;
10617;SDS011;5356;43.526;26.534;2022-10-16T15:20:34;10.02;;;4.43;;
10617;SDS011;5356;43.526;26.534;2022-10-16T15:23:02;7.78;;;4.90;;
10617;SDS011;5356;43.526;26.534;2022-10-16T15:28:08;5.90;;;4.22;;
10617;SDS011;5356;43.526;26.534;2022-10-16T15:30:35;7.53;;;4.45;;
10617;SDS011;5356;43.526;26.534;2022-10-16T15:33:01;7.85;;;4.60;;
10617;SDS011;5356;43.526;26.534;2022-10-16T15:35:27;10.63;;;6.43;;
10617;SDS011;5356;43.526;26.534;2022-10-16T15:37:53;13.10;;;7.10;;
10617;SDS011;5356;43.526;26.534;2022-10-16T15:40:19;15.18;;;7.65;;
10617;SDS011;5356;43.526;26.534;2022-10-16T15:42:45;11.93;;;7.43;;
10617;SDS011;5356;43.526;26.534;2022-10-16T15:45:11;17.75;;;8.27;;
10617;SDS011;5356;43.526;26.534;2022-10-16T15:47:37;15.32;;;8.57;;
10617;SDS011;5356;43.526;26.534;2022-10-16T15:50:03;13.50;;;8.25;;
10617;SDS011;5356;43.526;26.534;2022-10-16T15:52:30;12.65;;;6.97;;
10617;SDS011;5356;43.526;26.534;2022-10-16T15:54:56;15.25;;;8.48;;
10617;SDS011;5356;43.526;26.534;2022-10-16T15:57:22;15.60;;;7.65;;
10617;SDS011;5356;43.526;26.534;2022-10-16T15:59:49;16.42;;;7.68;;
10617;SDS011;5356;43.526;26.534;2022-10-16T16:02:14;14.25;;;8.15;;
10617;SDS011;5356;43.526;26.534;2022-10-16T16:04:40;17.95;;;9.52;;
10617;SDS011;5356;43.526;26.534;2022-10-16T16:07:06;22.15;;;10.52;;
10617;SDS011;5356;43.526;26.534;2022-10-16T16:09:32;25.25;;;11.13;;
10617;SDS011;5356;43.526;26.534;2022-10-16T16:11:58;25.05;;;11.98;;
10617;SDS011;5356;43.526;26.534;2022-10-16T16:14:25;22.23;;;10.90;;
10617;SDS011;5356;43.526;26.534;2022-10-16T16:16:53;21.17;;;10.00;;
10617;SDS011;5356;43.526;26.534;2022-10-16T16:19:19;10.68;;;6.70;;
10617;SDS011;5356;43.526;26.534;2022-10-16T16:21:46;14.75;;;6.63;;
10617;SDS011;5356;43.526;26.534;2022-10-16T16:24:11;7.63;;;4.78;;
10617;SDS011;5356;43.526;26.534;2022-10-16T16:26:37;9.07;;;6.00;;
10617;SDS011;5356;43.526;26.534;2022-10-16T16:29:04;17.42;;;8.82;;
10617;SDS011;5356;43.526;26.534;2022-10-16T16:31:31;18.65;;;8.85;;
10617;SDS011;5356;43.526;26.534;2022-10-16T16:33:57;19.33;;;9.48;;
10617;SDS011;5356;43.526;26.534;2022-10-16T16:36:23;13.60;;;9.23;;
10617;SDS011;5356;43.526;26.534;2022-10-16T16:38:49;16.92;;;11.57;;
10617;SDS011;5356;43.526;26.534;2022-10-16T16:41:16;20.17;;;13.70;;
10617;SDS011;5356;43.526;26.534;2022-10-16T16:43:44;25.08;;;13.38;;
10617;SDS011;5356;43.526;26.534;2022-10-16T16:46:10;18.13;;;11.68;;
10617;SDS011;5356;43.526;26.534;2022-10-16T16:48:36;17.63;;;10.90;;
10617;SDS011;5356;43.526;26.534;2022-10-16T16:51:06;22.50;;;11.95;;
10617;SDS011;5356;43.526;26.534;2022-10-16T16:53:41;31.63;;;15.10;;
10617;SDS011;5356;43.526;26.534;2022-10-16T16:56:07;32.95;;;15.63;;
10617;SDS011;5356;43.526;26.534;2022-10-16T16:58:36;29.70;;;15.65;;
10617;SDS011;5356;43.526;26.534;2022-10-16T17:01:01;40.95;;;18.50;;
10617;SDS011;5356;43.526;26.534;2022-10-16T17:03:31;39.50;;;19.90;;
10617;SDS011;5356;43.526;26.534;2022-10-16T17:05:59;33.67;;;18.38;;
10617;SDS011;5356;43.526;26.534;2022-10-16T17:08:25;40.00;;;19.80;;
10617;SDS011;5356;43.526;26.534;2022-10-16T17:10:51;39.80;;;19.92;;